sensor_id;sensor_type;location;lat;lon;timestamp;temperature;humidity
21778;DHT22;11050;52.222;20.916;2023-08-07T00:00:53;14.80;99.90
21778;DHT22;11050;52.222;20.916;2023-08-07T00:03:19;14.70;99.90
21778;DHT22;11050;52.222;20.916;2023-08-07T00:05:48;14.80;99.90
21778;DHT22;11050;52.222;20.916;2023-08-07T00:08:14;14.70;99.90
21778;DHT22;11050;52.222;20.916;2023-08-07T00:10:39;14.70;99.90
21778;DHT22;11050;52.222;20.916;2023-08-07T00:13:05;14.70;99.90
21778;DHT22;11050;52.222;20.916;2023-08-07T00:15:31;14.60;99.90
21778;DHT22;11050;52.222;20.916;2023-08-07T00:17:59;14.60;99.90
21778;DHT22;11050;52.222;20.916;2023-08-07T00:20:25;14.60;99.90
21778;DHT22;11050;52.222;20.916;2023-08-07T00:22:51;14.50;99.90
21778;DHT22;11050;52.222;20.916;2023-08-07T00:25:16;14.50;99.90
21778;DHT22;11050;52.222;20.916;2023-08-07T00:27:42;14.50;99.90
21778;DHT22;11050;52.222;20.916;2023-08-07T00:30:09;14.40;99.90
21778;DHT22;11050;52.222;20.916;2023-08-07T00:32:35;14.40;99.90
21778;DHT22;11050;52.222;20.916;2023-08-07T00:35:00;14.40;99.90
21778;DHT22;11050;52.222;20.916;2023-08-07T00:37:26;14.40;99.90
21778;DHT22;11050;52.222;20.916;2023-08-07T00:39:52;14.40;99.90
21778;DHT22;11050;52.222;20.916;2023-08-07T00:42:18;14.40;99.90
21778;DHT22;11050;52.222;20.916;2023-08-07T00:44:43;14.40;99.90
21778;DHT22;11050;52.222;20.916;2023-08-07T00:47:09;14.40;99.90
21778;DHT22;11050;52.222;20.916;2023-08-07T00:49:36;14.40;99.90
21778;DHT22;11050;52.222;20.916;2023-08-07T00:52:02;14.40;99.90
21778;DHT22;11050;52.222;20.916;2023-08-07T00:54:28;14.40;99.90
21778;DHT22;11050;52.222;20.916;2023-08-07T00:56:55;14.40;99.90
21778;DHT22;11050;52.222;20.916;2023-08-07T00:59:22;14.40;99.90
21778;DHT22;11050;52.222;20.916;2023-08-07T01:01:48;14.40;99.90
21778;DHT22;11050;52.222;20.916;2023-08-07T01:04:14;14.40;99.90
21778;DHT22;11050;52.222;20.916;2023-08-07T01:06:40;14.40;99.90
21778;DHT22;11050;52.222;20.916;2023-08-07T01:09:06;14.40;99.90
21778;DHT22;11050;52.222;20.916;2023-08-07T01:11:49;14.40;99.90
21778;DHT22;11050;52.222;20.916;2023-08-07T01:17:02;14.40;99.90
21778;DHT22;11050;52.222;20.916;2023-08-07T01:19:34;14.30;99.90
21778;DHT22;11050;52.222;20.916;2023-08-07T01:22:08;14.30;99.90
21778;DHT22;11050;52.222;20.916;2023-08-07T01:24:35;14.30;99.90
21778;DHT22;11050;52.222;20.916;2023-08-07T01:32:47;14.30;99.90
21778;DHT22;11050;52.222;20.916;2023-08-07T01:35:22;14.30;99.90
21778;DHT22;11050;52.222;20.916;2023-08-07T01:37:54;14.20;99.90
21778;DHT22;11050;52.222;20.916;2023-08-07T01:40:22;14.20;99.90
21778;DHT22;11050;52.222;20.916;2023-08-07T01:42:48;14.20;99.90
21778;DHT22;11050;52.222;20.916;2023-08-07T01:45:25;14.20;99.90
21778;DHT22;11050;52.222;20.916;2023-08-07T01:47:52;14.20;99.90
21778;DHT22;11050;52.222;20.916;2023-08-07T01:50:19;14.20;99.90
21778;DHT22;11050;52.222;20.916;2023-08-07T01:52:46;14.20;99.90
21778;DHT22;11050;52.222;20.916;2023-08-07T01:55:14;14.20;99.90
21778;DHT22;11050;52.222;20.916;2023-08-07T01:57:40;14.10;99.90
21778;DHT22;11050;52.222;20.916;2023-08-07T02:00:07;14.20;99.90
21778;DHT22;11050;52.222;20.916;2023-08-07T02:02:34;14.10;99.90
21778;DHT22;11050;52.222;20.916;2023-08-07T02:05:00;14.10;99.90
21778;DHT22;11050;52.222;20.916;2023-08-07T02:07:26;14.10;99.90
21778;DHT22;11050;52.222;20.916;2023-08-07T02:09:51;14.10;99.90
21778;DHT22;11050;52.222;20.916;2023-08-07T02:12:17;14.10;99.90
21778;DHT22;11050;52.222;20.916;2023-08-07T02:14:43;14.10;99.90
21778;DHT22;11050;52.222;20.916;2023-08-07T02:17:09;14.10;99.90
21778;DHT22;11050;52.222;20.916;2023-08-07T02:19:34;14.10;99.90
21778;DHT22;11050;52.222;20.916;2023-08-07T02:22:01;14.10;99.90
21778;DHT22;11050;52.222;20.916;2023-08-07T02:24:27;14.10;99.90
21778;DHT22;11050;52.222;20.916;2023-08-07T02:26:53;14.00;99.90
21778;DHT22;11050;52.222;20.916;2023-08-07T02:29:18;14.00;99.90
21778;DHT22;11050;52.222;20.916;2023-08-07T02:31:44;14.00;99.90
21778;DHT22;11050;52.222;20.916;2023-08-07T02:34:10;14.00;99.90
21778;DHT22;11050;52.222;20.916;2023-08-07T02:36:36;14.00;99.90
21778;DHT22;11050;52.222;20.916;2023-08-07T02:39:01;14.00;99.90
21778;DHT22;11050;52.222;20.916;2023-08-07T02:41:27;14.00;99.90
21778;DHT22;11050;52.222;20.916;2023-08-07T02:43:53;14.00;99.90
21778;DHT22;11050;52.222;20.916;2023-08-07T02:46:19;14.00;99.90
21778;DHT22;11050;52.222;20.916;2023-08-07T02:48:45;14.00;99.90
21778;DHT22;11050;52.222;20.916;2023-08-07T02:51:10;13.90;99.90
21778;DHT22;11050;52.222;20.916;2023-08-07T02:53:36;14.00;99.90
21778;DHT22;11050;52.222;20.916;2023-08-07T02:56:02;13.90;99.90
21778;DHT22;11050;52.222;20.916;2023-08-07T02:58:28;13.90;99.90
21778;DHT22;11050;52.222;20.916;2023-08-07T03:00:53;13.90;99.90
21778;DHT22;11050;52.222;20.916;2023-08-07T03:03:19;13.90;99.90
21778;DHT22;11050;52.222;20.916;2023-08-07T03:05:51;13.90;99.90
21778;DHT22;11050;52.222;20.916;2023-08-07T03:08:17;13.90;99.90
21778;DHT22;11050;52.222;20.916;2023-08-07T03:10:53;13.90;99.90
21778;DHT22;11050;52.222;20.916;2023-08-07T03:13:21;13.90;99.90
21778;DHT22;11050;52.222;20.916;2023-08-07T03:15:47;13.90;99.90
21778;DHT22;11050;52.222;20.916;2023-08-07T03:18:18;13.90;99.90
21778;DHT22;11050;52.222;20.916;2023-08-07T03:20:44;13.90;99.90
21778;DHT22;11050;52.222;20.916;2023-08-07T03:23:10;13.90;99.90
21778;DHT22;11050;52.222;20.916;2023-08-07T03:25:36;13.90;99.90
21778;DHT22;11050;52.222;20.916;2023-08-07T03:28:03;13.90;99.90
21778;DHT22;11050;52.222;20.916;2023-08-07T03:30:29;13.90;99.90
21778;DHT22;11050;52.222;20.916;2023-08-07T03:32:54;13.90;99.90
21778;DHT22;11050;52.222;20.916;2023-08-07T03:35:20;14.00;99.90
21778;DHT22;11050;52.222;20.916;2023-08-07T03:37:46;14.00;99.90
21778;DHT22;11050;52.222;20.916;2023-08-07T03:40:12;14.00;99.90
21778;DHT22;11050;52.222;20.916;2023-08-07T03:42:37;14.00;99.90
21778;DHT22;11050;52.222;20.916;2023-08-07T03:45:03;14.00;99.90
21778;DHT22;11050;52.222;20.916;2023-08-07T03:47:29;14.00;99.90
21778;DHT22;11050;52.222;20.916;2023-08-07T03:49:55;14.00;99.90
21778;DHT22;11050;52.222;20.916;2023-08-07T03:52:20;13.90;99.90
21778;DHT22;11050;52.222;20.916;2023-08-07T03:54:46;14.00;99.90
21778;DHT22;11050;52.222;20.916;2023-08-07T03:57:12;13.90;99.90
21778;DHT22;11050;52.222;20.916;2023-08-07T03:59:38;13.90;99.90
21778;DHT22;11050;52.222;20.916;2023-08-07T04:02:03;13.90;99.90
21778;DHT22;11050;52.222;20.916;2023-08-07T04:04:30;14.00;99.90
21778;DHT22;11050;52.222;20.916;2023-08-07T04:06:55;13.90;99.90
21778;DHT22;11050;52.222;20.916;2023-08-07T04:09:21;14.00;99.90
21778;DHT22;11050;52.222;20.916;2023-08-07T04:11:47;14.00;99.90
21778;DHT22;11050;52.222;20.916;2023-08-07T04:14:12;14.00;99.90
21778;DHT22;11050;52.222;20.916;2023-08-07T04:16:38;14.00;99.90
21778;DHT22;11050;52.222;20.916;2023-08-07T04:19:04;14.00;99.90
21778;DHT22;11050;52.222;20.916;2023-08-07T04:21:32;14.10;99.90
21778;DHT22;11050;52.222;20.916;2023-08-07T04:23:57;14.00;99.90
21778;DHT22;11050;52.222;20.916;2023-08-07T04:26:25;14.10;99.90
21778;DHT22;11050;52.222;20.916;2023-08-07T04:28:52;14.10;99.90
21778;DHT22;11050;52.222;20.916;2023-08-07T04:31:17;14.10;99.90
21778;DHT22;11050;52.222;20.916;2023-08-07T04:33:44;14.10;99.90
21778;DHT22;11050;52.222;20.916;2023-08-07T04:36:09;14.20;99.90
21778;DHT22;11050;52.222;20.916;2023-08-07T04:38:35;14.20;99.90
21778;DHT22;11050;52.222;20.916;2023-08-07T04:41:01;14.30;99.90
21778;DHT22;11050;52.222;20.916;2023-08-07T04:43:28;14.30;99.90
21778;DHT22;11050;52.222;20.916;2023-08-07T04:45:54;14.30;99.90
21778;DHT22;11050;52.222;20.916;2023-08-07T04:48:20;14.40;99.90
21778;DHT22;11050;52.222;20.916;2023-08-07T04:50:47;14.40;99.90
21778;DHT22;11050;52.222;20.916;2023-08-07T04:53:13;14.40;99.90
21778;DHT22;11050;52.222;20.916;2023-08-07T04:55:39;14.40;99.90
21778;DHT22;11050;52.222;20.916;2023-08-07T04:58:05;14.50;99.90
21778;DHT22;11050;52.222;20.916;2023-08-07T05:00:31;14.50;99.90
21778;DHT22;11050;52.222;20.916;2023-08-07T05:02:57;14.50;99.90
21778;DHT22;11050;52.222;20.916;2023-08-07T05:05:23;14.50;99.90
21778;DHT22;11050;52.222;20.916;2023-08-07T05:07:49;14.60;99.90
21778;DHT22;11050;52.222;20.916;2023-08-07T05:10:15;14.60;99.90
21778;DHT22;11050;52.222;20.916;2023-08-07T05:12:41;14.60;99.90
21778;DHT22;11050;52.222;20.916;2023-08-07T05:15:07;14.60;99.90
21778;DHT22;11050;52.222;20.916;2023-08-07T05:17:33;14.60;99.90
21778;DHT22;11050;52.222;20.916;2023-08-07T05:19:58;14.60;99.90
21778;DHT22;11050;52.222;20.916;2023-08-07T05:22:24;14.50;99.90
21778;DHT22;11050;52.222;20.916;2023-08-07T05:24:50;14.50;99.90
21778;DHT22;11050;52.222;20.916;2023-08-07T05:27:16;14.50;99.90
21778;DHT22;11050;52.222;20.916;2023-08-07T05:29:42;14.50;99.90
21778;DHT22;11050;52.222;20.916;2023-08-07T05:32:14;14.50;99.90
21778;DHT22;11050;52.222;20.916;2023-08-07T05:34:40;14.40;99.90
21778;DHT22;11050;52.222;20.916;2023-08-07T05:37:07;14.50;99.90
21778;DHT22;11050;52.222;20.916;2023-08-07T05:39:34;14.40;99.90
21778;DHT22;11050;52.222;20.916;2023-08-07T05:42:01;14.40;99.90
21778;DHT22;11050;52.222;20.916;2023-08-07T05:44:27;14.50;99.90
21778;DHT22;11050;52.222;20.916;2023-08-07T05:46:53;14.40;99.90
21778;DHT22;11050;52.222;20.916;2023-08-07T05:49:19;14.40;99.90
21778;DHT22;11050;52.222;20.916;2023-08-07T05:51:45;14.50;99.90
21778;DHT22;11050;52.222;20.916;2023-08-07T05:54:11;14.40;99.90
21778;DHT22;11050;52.222;20.916;2023-08-07T05:56:37;14.40;99.90
21778;DHT22;11050;52.222;20.916;2023-08-07T05:59:04;14.40;99.90
21778;DHT22;11050;52.222;20.916;2023-08-07T06:01:30;14.40;99.90
21778;DHT22;11050;52.222;20.916;2023-08-07T06:04:00;14.30;99.90
21778;DHT22;11050;52.222;20.916;2023-08-07T06:06:26;14.30;99.90
21778;DHT22;11050;52.222;20.916;2023-08-07T06:08:54;14.20;99.90
21778;DHT22;11050;52.222;20.916;2023-08-07T06:11:20;14.20;99.90
21778;DHT22;11050;52.222;20.916;2023-08-07T06:13:46;14.10;99.90
21778;DHT22;11050;52.222;20.916;2023-08-07T06:16:11;14.10;99.90
21778;DHT22;11050;52.222;20.916;2023-08-07T06:18:38;14.10;99.90
21778;DHT22;11050;52.222;20.916;2023-08-07T06:21:03;14.10;99.90
21778;DHT22;11050;52.222;20.916;2023-08-07T06:23:35;14.10;99.90
21778;DHT22;11050;52.222;20.916;2023-08-07T06:26:01;14.20;99.90
21778;DHT22;11050;52.222;20.916;2023-08-07T06:28:30;14.20;99.90
21778;DHT22;11050;52.222;20.916;2023-08-07T06:31:06;14.30;99.90
21778;DHT22;11050;52.222;20.916;2023-08-07T06:33:34;14.30;99.90
21778;DHT22;11050;52.222;20.916;2023-08-07T06:36:01;14.40;99.90
21778;DHT22;11050;52.222;20.916;2023-08-07T06:38:27;14.50;99.90
21778;DHT22;11050;52.222;20.916;2023-08-07T06:40:53;14.50;99.90
21778;DHT22;11050;52.222;20.916;2023-08-07T06:43:19;14.50;99.90
21778;DHT22;11050;52.222;20.916;2023-08-07T06:45:54;14.60;99.90
21778;DHT22;11050;52.222;20.916;2023-08-07T06:48:21;14.60;99.90
21778;DHT22;11050;52.222;20.916;2023-08-07T06:50:48;14.70;99.90
21778;DHT22;11050;52.222;20.916;2023-08-07T06:53:15;14.70;99.90
21778;DHT22;11050;52.222;20.916;2023-08-07T06:55:44;14.70;99.90
21778;DHT22;11050;52.222;20.916;2023-08-07T06:58:10;14.70;99.90
21778;DHT22;11050;52.222;20.916;2023-08-07T07:00:37;14.80;99.90
21778;DHT22;11050;52.222;20.916;2023-08-07T07:03:03;14.90;99.90
21778;DHT22;11050;52.222;20.916;2023-08-07T07:05:29;15.10;99.90
21778;DHT22;11050;52.222;20.916;2023-08-07T07:07:57;15.20;99.90
21778;DHT22;11050;52.222;20.916;2023-08-07T07:10:23;15.40;99.90
21778;DHT22;11050;52.222;20.916;2023-08-07T07:12:49;15.50;99.90
21778;DHT22;11050;52.222;20.916;2023-08-07T07:15:15;15.60;99.90
21778;DHT22;11050;52.222;20.916;2023-08-07T07:17:41;15.80;99.90
21778;DHT22;11050;52.222;20.916;2023-08-07T07:20:07;15.90;99.90
21778;DHT22;11050;52.222;20.916;2023-08-07T07:22:35;15.90;99.90
21778;DHT22;11050;52.222;20.916;2023-08-07T07:25:01;16.00;99.90
21778;DHT22;11050;52.222;20.916;2023-08-07T07:27:26;16.00;99.90
21778;DHT22;11050;52.222;20.916;2023-08-07T07:29:52;16.00;99.90
21778;DHT22;11050;52.222;20.916;2023-08-07T07:32:18;16.10;99.90
21778;DHT22;11050;52.222;20.916;2023-08-07T07:34:44;16.10;99.90
21778;DHT22;11050;52.222;20.916;2023-08-07T07:37:10;16.10;99.90
21778;DHT22;11050;52.222;20.916;2023-08-07T07:39:36;16.10;99.90
21778;DHT22;11050;52.222;20.916;2023-08-07T07:42:02;16.10;99.90
21778;DHT22;11050;52.222;20.916;2023-08-07T07:44:30;16.10;99.90
21778;DHT22;11050;52.222;20.916;2023-08-07T07:46:57;16.00;99.90
21778;DHT22;11050;52.222;20.916;2023-08-07T07:49:25;16.00;99.90
21778;DHT22;11050;52.222;20.916;2023-08-07T07:51:50;15.90;99.90
21778;DHT22;11050;52.222;20.916;2023-08-07T07:54:16;15.90;99.90
21778;DHT22;11050;52.222;20.916;2023-08-07T07:56:42;15.90;99.90
21778;DHT22;11050;52.222;20.916;2023-08-07T07:59:08;15.90;99.90
21778;DHT22;11050;52.222;20.916;2023-08-07T08:01:34;15.90;99.90
21778;DHT22;11050;52.222;20.916;2023-08-07T08:04:00;16.10;99.90
21778;DHT22;11050;52.222;20.916;2023-08-07T08:06:25;16.30;99.90
21778;DHT22;11050;52.222;20.916;2023-08-07T08:08:51;16.40;99.90
21778;DHT22;11050;52.222;20.916;2023-08-07T08:11:17;16.50;99.90
21778;DHT22;11050;52.222;20.916;2023-08-07T08:13:43;16.60;99.90
21778;DHT22;11050;52.222;20.916;2023-08-07T08:16:09;16.70;99.90
21778;DHT22;11050;52.222;20.916;2023-08-07T08:18:34;16.70;99.90
21778;DHT22;11050;52.222;20.916;2023-08-07T08:21:00;16.70;99.90
21778;DHT22;11050;52.222;20.916;2023-08-07T08:23:26;16.70;99.90
21778;DHT22;11050;52.222;20.916;2023-08-07T08:25:52;16.70;99.90
21778;DHT22;11050;52.222;20.916;2023-08-07T08:28:17;16.60;99.90
21778;DHT22;11050;52.222;20.916;2023-08-07T08:30:43;16.60;99.90
21778;DHT22;11050;52.222;20.916;2023-08-07T08:33:09;16.60;99.90
21778;DHT22;11050;52.222;20.916;2023-08-07T08:35:38;16.70;99.90
21778;DHT22;11050;52.222;20.916;2023-08-07T08:38:04;16.70;99.90
21778;DHT22;11050;52.222;20.916;2023-08-07T08:40:30;16.70;99.90
21778;DHT22;11050;52.222;20.916;2023-08-07T08:42:57;16.70;99.90
21778;DHT22;11050;52.222;20.916;2023-08-07T08:45:26;16.70;99.90
21778;DHT22;11050;52.222;20.916;2023-08-07T08:48:03;16.80;99.90
21778;DHT22;11050;52.222;20.916;2023-08-07T08:50:32;16.90;99.90
21778;DHT22;11050;52.222;20.916;2023-08-07T08:52:59;16.90;99.90
21778;DHT22;11050;52.222;20.916;2023-08-07T08:55:27;17.00;99.90
21778;DHT22;11050;52.222;20.916;2023-08-07T08:57:54;17.10;99.90
21778;DHT22;11050;52.222;20.916;2023-08-07T09:00:20;17.10;99.90
21778;DHT22;11050;52.222;20.916;2023-08-07T09:02:48;17.20;99.90
21778;DHT22;11050;52.222;20.916;2023-08-07T09:05:15;17.40;99.90
21778;DHT22;11050;52.222;20.916;2023-08-07T09:07:42;17.50;99.90
21778;DHT22;11050;52.222;20.916;2023-08-07T09:10:13;17.70;99.90
21778;DHT22;11050;52.222;20.916;2023-08-07T09:12:41;17.80;99.90
21778;DHT22;11050;52.222;20.916;2023-08-07T09:15:23;17.80;99.90
21778;DHT22;11050;52.222;20.916;2023-08-07T09:17:51;18.00;99.90
21778;DHT22;11050;52.222;20.916;2023-08-07T09:20:20;18.10;99.90
21778;DHT22;11050;52.222;20.916;2023-08-07T09:22:46;18.20;99.90
21778;DHT22;11050;52.222;20.916;2023-08-07T09:25:12;18.20;99.90
21778;DHT22;11050;52.222;20.916;2023-08-07T09:27:39;18.30;99.90
21778;DHT22;11050;52.222;20.916;2023-08-07T09:30:07;18.40;99.90
21778;DHT22;11050;52.222;20.916;2023-08-07T09:32:36;18.50;99.90
21778;DHT22;11050;52.222;20.916;2023-08-07T09:35:03;18.50;99.90
21778;DHT22;11050;52.222;20.916;2023-08-07T09:37:30;18.70;99.90
21778;DHT22;11050;52.222;20.916;2023-08-07T09:39:56;18.80;99.90
21778;DHT22;11050;52.222;20.916;2023-08-07T09:42:25;18.90;99.90
21778;DHT22;11050;52.222;20.916;2023-08-07T09:44:51;18.80;99.90
21778;DHT22;11050;52.222;20.916;2023-08-07T09:47:18;18.90;99.90
21778;DHT22;11050;52.222;20.916;2023-08-07T09:49:45;18.90;99.90
21778;DHT22;11050;52.222;20.916;2023-08-07T09:52:13;18.90;99.90
21778;DHT22;11050;52.222;20.916;2023-08-07T09:54:41;18.90;99.90
21778;DHT22;11050;52.222;20.916;2023-08-07T09:57:07;19.00;99.90
21778;DHT22;11050;52.222;20.916;2023-08-07T09:59:33;19.00;99.90
21778;DHT22;11050;52.222;20.916;2023-08-07T10:02:03;19.10;99.90
21778;DHT22;11050;52.222;20.916;2023-08-07T10:04:30;19.30;99.90
21778;DHT22;11050;52.222;20.916;2023-08-07T10:06:57;19.50;99.90
21778;DHT22;11050;52.222;20.916;2023-08-07T10:09:24;19.60;99.20
21778;DHT22;11050;52.222;20.916;2023-08-07T10:11:52;19.70;98.10
21778;DHT22;11050;52.222;20.916;2023-08-07T10:14:18;19.70;98.30
21778;DHT22;11050;52.222;20.916;2023-08-07T10:16:45;19.80;97.60
21778;DHT22;11050;52.222;20.916;2023-08-07T10:19:11;19.70;96.80
21778;DHT22;11050;52.222;20.916;2023-08-07T10:21:41;19.70;96.30
21778;DHT22;11050;52.222;20.916;2023-08-07T10:24:10;19.60;96.60
21778;DHT22;11050;52.222;20.916;2023-08-07T10:26:41;19.50;96.90
21778;DHT22;11050;52.222;20.916;2023-08-07T10:29:13;19.50;97.50
21778;DHT22;11050;52.222;20.916;2023-08-07T10:31:44;19.60;98.30
21778;DHT22;11050;52.222;20.916;2023-08-07T10:34:12;19.70;97.50
21778;DHT22;11050;52.222;20.916;2023-08-07T10:36:37;19.80;97.20
21778;DHT22;11050;52.222;20.916;2023-08-07T10:39:15;19.90;95.00
21778;DHT22;11050;52.222;20.916;2023-08-07T10:41:45;20.00;95.10
21778;DHT22;11050;52.222;20.916;2023-08-07T10:44:21;19.90;94.60
21778;DHT22;11050;52.222;20.916;2023-08-07T10:46:53;19.80;94.50
21778;DHT22;11050;52.222;20.916;2023-08-07T10:49:40;19.70;94.70
21778;DHT22;11050;52.222;20.916;2023-08-07T10:52:13;19.70;95.20
21778;DHT22;11050;52.222;20.916;2023-08-07T10:54:45;19.60;96.10
21778;DHT22;11050;52.222;20.916;2023-08-07T10:57:13;19.60;96.60
21778;DHT22;11050;52.222;20.916;2023-08-07T10:59:51;19.70;96.60
21778;DHT22;11050;52.222;20.916;2023-08-07T11:02:31;19.90;96.20
21778;DHT22;11050;52.222;20.916;2023-08-07T11:04:59;20.30;94.40
21778;DHT22;11050;52.222;20.916;2023-08-07T11:07:26;20.50;93.20
21778;DHT22;11050;52.222;20.916;2023-08-07T11:09:53;20.50;92.40
21778;DHT22;11050;52.222;20.916;2023-08-07T11:12:20;20.60;92.20
21778;DHT22;11050;52.222;20.916;2023-08-07T11:14:49;20.70;91.80
21778;DHT22;11050;52.222;20.916;2023-08-07T11:17:16;20.70;90.80
21778;DHT22;11050;52.222;20.916;2023-08-07T11:19:42;20.70;90.30
21778;DHT22;11050;52.222;20.916;2023-08-07T11:22:08;20.60;90.80
21778;DHT22;11050;52.222;20.916;2023-08-07T11:24:34;20.70;90.20
21778;DHT22;11050;52.222;20.916;2023-08-07T11:27:00;20.90;90.10
21778;DHT22;11050;52.222;20.916;2023-08-07T11:29:26;20.90;89.50
21778;DHT22;11050;52.222;20.916;2023-08-07T11:31:52;21.00;89.70
21778;DHT22;11050;52.222;20.916;2023-08-07T11:34:18;21.30;87.60
21778;DHT22;11050;52.222;20.916;2023-08-07T11:36:44;21.50;87.00
21778;DHT22;11050;52.222;20.916;2023-08-07T11:39:12;21.90;85.50
21778;DHT22;11050;52.222;20.916;2023-08-07T11:41:39;22.20;80.40
21778;DHT22;11050;52.222;20.916;2023-08-07T11:44:07;22.50;79.40
21778;DHT22;11050;52.222;20.916;2023-08-07T11:46:34;23.00;76.70
21778;DHT22;11050;52.222;20.916;2023-08-07T11:48:59;23.20;75.60
21778;DHT22;11050;52.222;20.916;2023-08-07T11:51:27;23.30;75.50
21778;DHT22;11050;52.222;20.916;2023-08-07T11:53:54;23.30;73.20
21778;DHT22;11050;52.222;20.916;2023-08-07T11:56:23;23.10;71.50
21778;DHT22;11050;52.222;20.916;2023-08-07T11:58:50;22.80;72.80
21778;DHT22;11050;52.222;20.916;2023-08-07T12:01:26;22.60;72.80
21778;DHT22;11050;52.222;20.916;2023-08-07T12:04:08;22.30;73.10
21778;DHT22;11050;52.222;20.916;2023-08-07T12:06:36;22.00;74.50
21778;DHT22;11050;52.222;20.916;2023-08-07T12:09:05;21.70;76.10
21778;DHT22;11050;52.222;20.916;2023-08-07T12:11:38;21.70;77.70
21778;DHT22;11050;52.222;20.916;2023-08-07T12:14:04;21.70;77.90
21778;DHT22;11050;52.222;20.916;2023-08-07T12:16:34;21.60;77.60
21778;DHT22;11050;52.222;20.916;2023-08-07T12:19:01;21.40;77.50
21778;DHT22;11050;52.222;20.916;2023-08-07T12:21:27;21.20;78.20
21778;DHT22;11050;52.222;20.916;2023-08-07T12:23:57;21.00;79.50
21778;DHT22;11050;52.222;20.916;2023-08-07T12:26:24;20.70;80.50
21778;DHT22;11050;52.222;20.916;2023-08-07T12:28:50;20.50;81.60
21778;DHT22;11050;52.222;20.916;2023-08-07T12:31:16;20.40;82.70
21778;DHT22;11050;52.222;20.916;2023-08-07T12:33:43;20.40;83.60
21778;DHT22;11050;52.222;20.916;2023-08-07T12:36:08;20.40;83.80
21778;DHT22;11050;52.222;20.916;2023-08-07T12:38:35;20.50;83.20
21778;DHT22;11050;52.222;20.916;2023-08-07T12:41:01;20.50;83.40
21778;DHT22;11050;52.222;20.916;2023-08-07T12:43:28;20.50;83.00
21778;DHT22;11050;52.222;20.916;2023-08-07T12:45:54;20.50;84.00
21778;DHT22;11050;52.222;20.916;2023-08-07T12:48:20;20.60;82.80
21778;DHT22;11050;52.222;20.916;2023-08-07T12:50:46;20.60;82.80
21778;DHT22;11050;52.222;20.916;2023-08-07T12:53:11;20.70;79.70
21778;DHT22;11050;52.222;20.916;2023-08-07T12:55:37;20.80;80.80
21778;DHT22;11050;52.222;20.916;2023-08-07T12:58:03;20.90;80.60
21778;DHT22;11050;52.222;20.916;2023-08-07T13:00:29;21.00;79.80
21778;DHT22;11050;52.222;20.916;2023-08-07T13:02:55;21.10;78.10
21778;DHT22;11050;52.222;20.916;2023-08-07T13:05:22;21.30;77.50
21778;DHT22;11050;52.222;20.916;2023-08-07T13:07:48;21.40;76.70
21778;DHT22;11050;52.222;20.916;2023-08-07T13:10:15;21.40;76.00
21778;DHT22;11050;52.222;20.916;2023-08-07T13:12:44;21.40;76.00
21778;DHT22;11050;52.222;20.916;2023-08-07T13:15:13;21.30;75.60
21778;DHT22;11050;52.222;20.916;2023-08-07T13:17:41;21.20;75.40
21778;DHT22;11050;52.222;20.916;2023-08-07T13:20:09;21.10;75.90
21778;DHT22;11050;52.222;20.916;2023-08-07T13:22:39;21.20;76.20
21778;DHT22;11050;52.222;20.916;2023-08-07T13:25:07;21.30;75.30
21778;DHT22;11050;52.222;20.916;2023-08-07T13:27:33;21.40;73.90
21778;DHT22;11050;52.222;20.916;2023-08-07T13:30:00;21.50;74.00
21778;DHT22;11050;52.222;20.916;2023-08-07T13:32:27;21.50;73.20
21778;DHT22;11050;52.222;20.916;2023-08-07T13:34:53;21.40;73.30
21778;DHT22;11050;52.222;20.916;2023-08-07T13:37:19;21.20;73.50
21778;DHT22;11050;52.222;20.916;2023-08-07T13:39:45;21.00;74.60
21778;DHT22;11050;52.222;20.916;2023-08-07T13:42:13;20.80;75.60
21778;DHT22;11050;52.222;20.916;2023-08-07T13:44:39;20.60;76.20
21778;DHT22;11050;52.222;20.916;2023-08-07T13:47:05;20.50;76.20
21778;DHT22;11050;52.222;20.916;2023-08-07T13:49:32;20.30;77.30
21778;DHT22;11050;52.222;20.916;2023-08-07T13:51:58;20.10;78.00
21778;DHT22;11050;52.222;20.916;2023-08-07T13:54:24;20.00;78.80
21778;DHT22;11050;52.222;20.916;2023-08-07T13:56:49;19.90;79.10
21778;DHT22;11050;52.222;20.916;2023-08-07T13:59:16;19.80;80.00
21778;DHT22;11050;52.222;20.916;2023-08-07T14:01:42;19.70;80.20
21778;DHT22;11050;52.222;20.916;2023-08-07T14:04:07;19.80;81.20
21778;DHT22;11050;52.222;20.916;2023-08-07T14:06:33;19.70;81.50
21778;DHT22;11050;52.222;20.916;2023-08-07T14:08:59;19.80;82.10
21778;DHT22;11050;52.222;20.916;2023-08-07T14:11:25;19.90;82.00
21778;DHT22;11050;52.222;20.916;2023-08-07T14:13:56;20.00;82.20
21778;DHT22;11050;52.222;20.916;2023-08-07T14:16:22;20.20;81.20
21778;DHT22;11050;52.222;20.916;2023-08-07T14:18:48;20.40;81.00
21778;DHT22;11050;52.222;20.916;2023-08-07T14:21:14;20.50;80.30
21778;DHT22;11050;52.222;20.916;2023-08-07T14:23:41;20.70;79.60
21778;DHT22;11050;52.222;20.916;2023-08-07T14:26:12;20.70;78.70
21778;DHT22;11050;52.222;20.916;2023-08-07T14:28:38;20.70;78.90
21778;DHT22;11050;52.222;20.916;2023-08-07T14:31:07;20.50;81.50
21778;DHT22;11050;52.222;20.916;2023-08-07T14:33:33;20.30;84.00
21778;DHT22;11050;52.222;20.916;2023-08-07T14:35:59;20.00;86.10
21778;DHT22;11050;52.222;20.916;2023-08-07T14:38:26;19.70;87.60
21778;DHT22;11050;52.222;20.916;2023-08-07T14:40:52;19.40;89.10
21778;DHT22;11050;52.222;20.916;2023-08-07T14:43:17;19.10;90.20
21778;DHT22;11050;52.222;20.916;2023-08-07T14:45:45;19.10;90.70
21778;DHT22;11050;52.222;20.916;2023-08-07T14:48:12;19.10;91.10
21778;DHT22;11050;52.222;20.916;2023-08-07T14:50:39;19.70;90.60
21778;DHT22;11050;52.222;20.916;2023-08-07T14:53:04;20.50;87.80
21778;DHT22;11050;52.222;20.916;2023-08-07T14:55:31;21.30;83.90
21778;DHT22;11050;52.222;20.916;2023-08-07T14:57:57;22.10;80.90
21778;DHT22;11050;52.222;20.916;2023-08-07T15:00:22;23.00;76.70
21778;DHT22;11050;52.222;20.916;2023-08-07T15:02:48;23.80;72.30
21778;DHT22;11050;52.222;20.916;2023-08-07T15:05:14;24.50;69.10
21778;DHT22;11050;52.222;20.916;2023-08-07T15:07:40;24.90;67.50
21778;DHT22;11050;52.222;20.916;2023-08-07T15:10:07;25.10;64.50
21778;DHT22;11050;52.222;20.916;2023-08-07T15:12:34;25.00;63.30
21778;DHT22;11050;52.222;20.916;2023-08-07T15:14:59;24.70;63.30
21778;DHT22;11050;52.222;20.916;2023-08-07T15:17:25;24.20;64.60
21778;DHT22;11050;52.222;20.916;2023-08-07T15:19:51;23.70;66.20
21778;DHT22;11050;52.222;20.916;2023-08-07T15:22:17;23.30;66.60